sensor_id;sensor_type;location;lat;lon;timestamp;pressure;altitude;pressure_sealevel;temperature;humidity
27202;BME280;14717;46.924;15.474;2023-06-22T00:00:43;98145.75;;;21.74;100.00
27202;BME280;14717;46.924;15.474;2023-06-22T00:03:09;98146.28;;;21.64;100.00
27202;BME280;14717;46.924;15.474;2023-06-22T00:05:35;98155.66;;;21.68;100.00
27202;BME280;14717;46.924;15.474;2023-06-22T00:08:03;98160.31;;;21.76;100.00
27202;BME280;14717;46.924;15.474;2023-06-22T00:10:29;98146.03;;;21.69;100.00
27202;BME280;14717;46.924;15.474;2023-06-22T00:12:55;98140.03;;;21.70;100.00
27202;BME280;14717;46.924;15.474;2023-06-22T00:15:20;98144.75;;;21.66;100.00
27202;BME280;14717;46.924;15.474;2023-06-22T00:17:46;98151.50;;;21.77;100.00
27202;BME280;14717;46.924;15.474;2023-06-22T00:20:11;98155.09;;;21.89;100.00
27202;BME280;14717;46.924;15.474;2023-06-22T00:22:36;98150.47;;;21.97;100.00
27202;BME280;14717;46.924;15.474;2023-06-22T00:25:08;98154.66;;;22.03;100.00
27202;BME280;14717;46.924;15.474;2023-06-22T00:27:34;98159.50;;;22.02;100.00
27202;BME280;14717;46.924;15.474;2023-06-22T00:30:00;98155.53;;;21.91;100.00
27202;BME280;14717;46.924;15.474;2023-06-22T00:32:25;98144.84;;;21.97;100.00
27202;BME280;14717;46.924;15.474;2023-06-22T00:34:50;98150.59;;;22.00;100.00
27202;BME280;14717;46.924;15.474;2023-06-22T00:37:16;98164.19;;;21.98;100.00
27202;BME280;14717;46.924;15.474;2023-06-22T00:39:42;98159.75;;;21.97;100.00
27202;BME280;14717;46.924;15.474;2023-06-22T00:42:08;98159.91;;;21.89;100.00
27202;BME280;14717;46.924;15.474;2023-06-22T00:44:34;98159.28;;;21.68;100.00
27202;BME280;14717;46.924;15.474;2023-06-22T00:46:59;98157.03;;;21.74;100.00
27202;BME280;14717;46.924;15.474;2023-06-22T00:49:25;98153.69;;;21.83;100.00
27202;BME280;14717;46.924;15.474;2023-06-22T00:51:52;98153.69;;;21.83;100.00
27202;BME280;14717;46.924;15.474;2023-06-22T00:54:17;98155.69;;;21.83;100.00
27202;BME280;14717;46.924;15.474;2023-06-22T00:56:51;98156.00;;;21.66;100.00
27202;BME280;14717;46.924;15.474;2023-06-22T00:59:20;98143.75;;;21.35;100.00
27202;BME280;14717;46.924;15.474;2023-06-22T01:01:45;98145.63;;;21.31;100.00
27202;BME280;14717;46.924;15.474;2023-06-22T01:04:10;98140.50;;;21.45;100.00
27202;BME280;14717;46.924;15.474;2023-06-22T01:06:43;98139.66;;;21.33;100.00
27202;BME280;14717;46.924;15.474;2023-06-22T01:09:20;98142.41;;;21.05;100.00
27202;BME280;14717;46.924;15.474;2023-06-22T01:11:57;98134.00;;;20.93;100.00
27202;BME280;14717;46.924;15.474;2023-06-22T01:14:43;98132.34;;;21.04;100.00
27202;BME280;14717;46.924;15.474;2023-06-22T01:17:14;98132.44;;;21.08;100.00
27202;BME280;14717;46.924;15.474;2023-06-22T01:19:54;98134.69;;;21.02;100.00
27202;BME280;14717;46.924;15.474;2023-06-22T01:22:23;98132.34;;;21.04;100.00
27202;BME280;14717;46.924;15.474;2023-06-22T01:30:10;98130.16;;;20.74;100.00
27202;BME280;14717;46.924;15.474;2023-06-22T01:32:38;98135.75;;;20.62;100.00
27202;BME280;14717;46.924;15.474;2023-06-22T01:35:06;98139.34;;;20.63;100.00
27202;BME280;14717;46.924;15.474;2023-06-22T01:37:33;98144.16;;;20.62;100.00
27202;BME280;14717;46.924;15.474;2023-06-22T01:40:01;98145.31;;;20.61;100.00
27202;BME280;14717;46.924;15.474;2023-06-22T01:42:27;98148.00;;;20.58;100.00
27202;BME280;14717;46.924;15.474;2023-06-22T01:44:53;98147.66;;;20.59;100.00
27202;BME280;14717;46.924;15.474;2023-06-22T01:47:20;98143.72;;;20.72;100.00
27202;BME280;14717;46.924;15.474;2023-06-22T01:49:47;98144.63;;;20.64;100.00
27202;BME280;14717;46.924;15.474;2023-06-22T01:52:12;98137.94;;;20.57;100.00
27202;BME280;14717;46.924;15.474;2023-06-22T01:54:39;98137.50;;;20.67;100.00
27202;BME280;14717;46.924;15.474;2023-06-22T01:57:05;98147.69;;;20.83;100.00
27202;BME280;14717;46.924;15.474;2023-06-22T02:00:01;98146.41;;;20.81;100.00
27202;BME280;14717;46.924;15.474;2023-06-22T02:02:33;98137.81;;;20.53;100.00
27202;BME280;14717;46.924;15.474;2023-06-22T02:05:09;98137.47;;;20.43;100.00
27202;BME280;14717;46.924;15.474;2023-06-22T02:07:42;98119.34;;;20.52;100.00
27202;BME280;14717;46.924;15.474;2023-06-22T02:10:09;98138.69;;;20.66;100.00
27202;BME280;14717;46.924;15.474;2023-06-22T02:12:38;98138.22;;;20.76;100.00
27202;BME280;14717;46.924;15.474;2023-06-22T02:15:04;98143.81;;;20.64;100.00
27202;BME280;14717;46.924;15.474;2023-06-22T02:17:30;98141.66;;;20.37;100.00
27202;BME280;14717;46.924;15.474;2023-06-22T02:19:58;98134.03;;;20.26;100.00
27202;BME280;14717;46.924;15.474;2023-06-22T02:22:24;98132.31;;;20.21;100.00
27202;BME280;14717;46.924;15.474;2023-06-22T02:24:49;98125.78;;;20.29;100.00
27202;BME280;14717;46.924;15.474;2023-06-22T02:27:14;98128.19;;;20.31;100.00
27202;BME280;14717;46.924;15.474;2023-06-22T02:29:40;98143.78;;;20.52;100.00
27202;BME280;14717;46.924;15.474;2023-06-22T02:32:05;98151.09;;;20.65;100.00
27202;BME280;14717;46.924;15.474;2023-06-22T02:34:31;98151.19;;;20.68;100.00
27202;BME280;14717;46.924;15.474;2023-06-22T02:36:57;98151.19;;;20.68;100.00
27202;BME280;14717;46.924;15.474;2023-06-22T02:39:24;98157.28;;;20.70;100.00
27202;BME280;14717;46.924;15.474;2023-06-22T02:41:50;98163.47;;;20.64;100.00
27202;BME280;14717;46.924;15.474;2023-06-22T02:44:16;98156.88;;;20.36;100.00
27202;BME280;14717;46.924;15.474;2023-06-22T02:46:42;98160.94;;;20.15;100.00
27202;BME280;14717;46.924;15.474;2023-06-22T02:49:07;98151.66;;;20.03;100.00
27202;BME280;14717;46.924;15.474;2023-06-22T02:51:33;98158.25;;;20.18;100.00
27202;BME280;14717;46.924;15.474;2023-06-22T02:54:04;98156.41;;;20.34;100.00
27202;BME280;14717;46.924;15.474;2023-06-22T02:56:29;98157.22;;;20.35;100.00
27202;BME280;14717;46.924;15.474;2023-06-22T02:58:55;98164.09;;;20.13;100.00
27202;BME280;14717;46.924;15.474;2023-06-22T03:01:29;98174.78;;;20.00;100.00
27202;BME280;14717;46.924;15.474;2023-06-22T03:04:05;98175.16;;;19.98;100.00
27202;BME280;14717;46.924;15.474;2023-06-22T03:06:30;98163.13;;;20.09;100.00
27202;BME280;14717;46.924;15.474;2023-06-22T03:09:00;98165.22;;;20.12;100.00
27202;BME280;14717;46.924;15.474;2023-06-22T03:11:26;98174.31;;;19.98;100.00
27202;BME280;14717;46.924;15.474;2023-06-22T03:13:52;98173.84;;;19.96;100.00
27202;BME280;14717;46.924;15.474;2023-06-22T03:16:18;98164.75;;;19.99;100.00
27202;BME280;14717;46.924;15.474;2023-06-22T03:18:44;98163.78;;;19.95;100.00
27202;BME280;14717;46.924;15.474;2023-06-22T03:21:09;98161.56;;;19.88;100.00
27202;BME280;14717;46.924;15.474;2023-06-22T03:23:35;98160.91;;;19.83;100.00
27202;BME280;14717;46.924;15.474;2023-06-22T03:26:01;98159.16;;;19.78;100.00
27202;BME280;14717;46.924;15.474;2023-06-22T03:28:26;98163.66;;;19.91;100.00
27202;BME280;14717;46.924;15.474;2023-06-22T03:30:51;98174.97;;;20.15;100.00
27202;BME280;14717;46.924;15.474;2023-06-22T03:33:17;98174.28;;;20.30;100.00
27202;BME280;14717;46.924;15.474;2023-06-22T03:35:42;98169.38;;;20.39;100.00
27202;BME280;14717;46.924;15.474;2023-06-22T03:38:07;98170.28;;;20.19;100.00
27202;BME280;14717;46.924;15.474;2023-06-22T03:40:33;98169.78;;;20.05;100.00
27202;BME280;14717;46.924;15.474;2023-06-22T03:42:58;98166.34;;;20.00;100.00
27202;BME280;14717;46.924;15.474;2023-06-22T03:45:23;98171.28;;;20.03;100.00
27202;BME280;14717;46.924;15.474;2023-06-22T03:47:49;98165.44;;;19.96;100.00
27202;BME280;14717;46.924;15.474;2023-06-22T03:50:14;98161.28;;;20.13;100.00
27202;BME280;14717;46.924;15.474;2023-06-22T03:52:40;98164.56;;;20.27;100.00
27202;BME280;14717;46.924;15.474;2023-06-22T03:55:06;98175.56;;;20.32;100.00
27202;BME280;14717;46.924;15.474;2023-06-22T03:57:32;98186.88;;;20.56;100.00
27202;BME280;14717;46.924;15.474;2023-06-22T03:59:58;98183.63;;;20.66;100.00
27202;BME280;14717;46.924;15.474;2023-06-22T04:02:24;98172.63;;;20.73;100.00
27202;BME280;14717;46.924;15.474;2023-06-22T04:04:49;98171.47;;;20.74;100.00
27202;BME280;14717;46.924;15.474;2023-06-22T04:07:14;98173.56;;;20.77;100.00
27202;BME280;14717;46.924;15.474;2023-06-22T04:09:40;98182.25;;;20.84;100.00
27202;BME280;14717;46.924;15.474;2023-06-22T04:12:05;98182.47;;;20.91;100.00
27202;BME280;14717;46.924;15.474;2023-06-22T04:14:31;98168.19;;;20.84;100.00
27202;BME280;14717;46.924;15.474;2023-06-22T04:16:57;98160.69;;;20.76;100.00
27202;BME280;14717;46.924;15.474;2023-06-22T04:19:23;98165.34;;;20.72;100.00
27202;BME280;14717;46.924;15.474;2023-06-22T04:21:48;98164.19;;;20.73;100.00
27202;BME280;14717;46.924;15.474;2023-06-22T04:24:14;98160.47;;;20.81;100.00
27202;BME280;14717;46.924;15.474;2023-06-22T04:26:39;98159.66;;;20.92;100.00
27202;BME280;14717;46.924;15.474;2023-06-22T04:29:06;98155.41;;;20.98;100.00
27202;BME280;14717;46.924;15.474;2023-06-22T04:31:36;98158.09;;;21.06;100.00
27202;BME280;14717;46.924;15.474;2023-06-22T04:34:03;98163.97;;;21.13;100.00
27202;BME280;14717;46.924;15.474;2023-06-22T04:36:36;98153.63;;;21.17;100.00
27202;BME280;14717;46.924;15.474;2023-06-22T04:39:09;98160.31;;;21.25;100.00
27202;BME280;14717;46.924;15.474;2023-06-22T04:41:39;98166.03;;;21.28;100.00
27202;BME280;14717;46.924;15.474;2023-06-22T04:44:12;98169.88;;;21.35;100.00
27202;BME280;14717;46.924;15.474;2023-06-22T04:46:38;98170.97;;;21.43;100.00
27202;BME280;14717;46.924;15.474;2023-06-22T04:49:08;98167.41;;;21.46;100.00
27202;BME280;14717;46.924;15.474;2023-06-22T04:51:37;98164.00;;;21.52;100.00
27202;BME280;14717;46.924;15.474;2023-06-22T04:54:03;98162.94;;;21.57;100.00
27202;BME280;14717;46.924;15.474;2023-06-22T04:56:31;98163.41;;;21.59;100.00
27202;BME280;14717;46.924;15.474;2023-06-22T04:58:56;98168.31;;;21.62;100.00
27202;BME280;14717;46.924;15.474;2023-06-22T05:01:23;98170.06;;;21.66;100.00
27202;BME280;14717;46.924;15.474;2023-06-22T05:03:48;98159.84;;;21.74;100.00
27202;BME280;14717;46.924;15.474;2023-06-22T05:06:14;98144.97;;;21.73;100.00
27202;BME280;14717;46.924;15.474;2023-06-22T05:08:40;98150.06;;;21.83;100.00
27202;BME280;14717;46.924;15.474;2023-06-22T05:11:05;98152.72;;;21.91;100.00
27202;BME280;14717;46.924;15.474;2023-06-22T05:13:31;98158.91;;;21.97;100.00
27202;BME280;14717;46.924;15.474;2023-06-22T05:15:56;98157.94;;;22.05;100.00
27202;BME280;14717;46.924;15.474;2023-06-22T05:18:27;98156.78;;;22.06;100.00
27202;BME280;14717;46.924;15.474;2023-06-22T05:20:54;98150.16;;;22.14;100.00
27202;BME280;14717;46.924;15.474;2023-06-22T05:23:20;98151.56;;;22.20;100.00
27202;BME280;14717;46.924;15.474;2023-06-22T05:25:45;98148.13;;;22.26;100.00
27202;BME280;14717;46.924;15.474;2023-06-22T05:28:10;98146.78;;;22.35;100.00
27202;BME280;14717;46.924;15.474;2023-06-22T05:30:37;98141.31;;;22.42;100.00
27202;BME280;14717;46.924;15.474;2023-06-22T05:33:02;98136.97;;;22.45;100.00
27202;BME280;14717;46.924;15.474;2023-06-22T05:35:27;98135.50;;;22.51;99.59
27202;BME280;14717;46.924;15.474;2023-06-22T05:37:53;98139.06;;;22.63;98.67
27202;BME280;14717;46.924;15.474;2023-06-22T05:40:18;98150.34;;;22.63;98.93
27202;BME280;14717;46.924;15.474;2023-06-22T05:42:44;98145.06;;;22.77;99.16
27202;BME280;14717;46.924;15.474;2023-06-22T05:45:09;98140.88;;;22.86;97.39
27202;BME280;14717;46.924;15.474;2023-06-22T05:47:35;98141.78;;;22.90;94.51
27202;BME280;14717;46.924;15.474;2023-06-22T05:50:00;98136.44;;;23.01;94.78
27202;BME280;14717;46.924;15.474;2023-06-22T05:52:25;98147.25;;;23.14;95.43
27202;BME280;14717;46.924;15.474;2023-06-22T05:54:51;98139.31;;;23.19;94.55
27202;BME280;14717;46.924;15.474;2023-06-22T05:57:16;98140.69;;;23.10;92.61
27202;BME280;14717;46.924;15.474;2023-06-22T05:59:41;98130.59;;;23.09;96.12
27202;BME280;14717;46.924;15.474;2023-06-22T06:02:07;98134.16;;;23.06;96.76
27202;BME280;14717;46.924;15.474;2023-06-22T06:04:32;98133.81;;;23.26;94.68
27202;BME280;14717;46.924;15.474;2023-06-22T06:06:57;98129.47;;;23.48;93.68
27202;BME280;14717;46.924;15.474;2023-06-22T06:09:23;98132.28;;;23.48;91.04
27202;BME280;14717;46.924;15.474;2023-06-22T06:11:48;98130.66;;;23.62;91.26
27202;BME280;14717;46.924;15.474;2023-06-22T06:14:13;98125.81;;;23.62;91.35
27202;BME280;14717;46.924;15.474;2023-06-22T06:16:39;98125.63;;;23.55;91.55
27202;BME280;14717;46.924;15.474;2023-06-22T06:19:04;98132.34;;;23.85;91.75
27202;BME280;14717;46.924;15.474;2023-06-22T06:21:29;98135.19;;;23.85;93.21
27202;BME280;14717;46.924;15.474;2023-06-22T06:23:55;98126.94;;;23.77;94.24
27202;BME280;14717;46.924;15.474;2023-06-22T06:26:20;98131.09;;;23.83;93.30
27202;BME280;14717;46.924;15.474;2023-06-22T06:28:55;98121.94;;;23.70;93.40
27202;BME280;14717;46.924;15.474;2023-06-22T06:31:21;98118.25;;;24.04;91.93
27202;BME280;14717;46.924;15.474;2023-06-22T06:33:46;98107.13;;;24.14;91.71
27202;BME280;14717;46.924;15.474;2023-06-22T06:36:12;98112.72;;;24.30;91.71
27202;BME280;14717;46.924;15.474;2023-06-22T06:38:37;98110.31;;;24.32;91.10
27202;BME280;14717;46.924;15.474;2023-06-22T06:41:03;98110.72;;;24.52;90.34
27202;BME280;14717;46.924;15.474;2023-06-22T06:43:28;98106.88;;;24.41;88.37
27202;BME280;14717;46.924;15.474;2023-06-22T06:45:53;98111.09;;;24.51;88.29
27202;BME280;14717;46.924;15.474;2023-06-22T06:48:19;98108.25;;;24.51;89.63
27202;BME280;14717;46.924;15.474;2023-06-22T06:50:44;98116.38;;;24.52;86.24
27202;BME280;14717;46.924;15.474;2023-06-22T06:53:10;98106.44;;;24.39;87.46
27202;BME280;14717;46.924;15.474;2023-06-22T06:55:35;98105.22;;;24.63;87.96
27202;BME280;14717;46.924;15.474;2023-06-22T06:58:02;98109.22;;;24.58;89.51
27202;BME280;14717;46.924;15.474;2023-06-22T07:00:28;98108.81;;;24.82;87.87
27202;BME280;14717;46.924;15.474;2023-06-22T07:02:53;98099.59;;;25.11;86.59
27202;BME280;14717;46.924;15.474;2023-06-22T07:05:18;98111.34;;;25.38;84.60
27202;BME280;14717;46.924;15.474;2023-06-22T07:07:44;98110.00;;;25.58;80.12
27202;BME280;14717;46.924;15.474;2023-06-22T07:10:10;98104.59;;;25.72;79.70
27202;BME280;14717;46.924;15.474;2023-06-22T07:12:35;98113.97;;;25.79;81.20
27202;BME280;14717;46.924;15.474;2023-06-22T07:15:05;98105.75;;;25.71;82.40
27202;BME280;14717;46.924;15.474;2023-06-22T07:17:33;98106.88;;;25.96;80.04
27202;BME280;14717;46.924;15.474;2023-06-22T07:19:58;98107.50;;;26.12;78.29
27202;BME280;14717;46.924;15.474;2023-06-22T07:22:23;98107.59;;;26.22;76.78
27202;BME280;14717;46.924;15.474;2023-06-22T07:24:49;98097.28;;;26.36;77.12
27202;BME280;14717;46.924;15.474;2023-06-22T07:27:14;98098.78;;;26.27;76.81
27202;BME280;14717;46.924;15.474;2023-06-22T07:29:43;98090.38;;;26.01;78.64
27202;BME280;14717;46.924;15.474;2023-06-22T07:32:08;98096.84;;;26.02;79.54
27202;BME280;14717;46.924;15.474;2023-06-22T07:34:34;98097.78;;;26.12;76.49
27202;BME280;14717;46.924;15.474;2023-06-22T07:36:59;98092.22;;;26.19;77.91
27202;BME280;14717;46.924;15.474;2023-06-22T07:39:24;98086.72;;;26.33;76.02
27202;BME280;14717;46.924;15.474;2023-06-22T07:41:52;98100.53;;;26.38;73.65
27202;BME280;14717;46.924;15.474;2023-06-22T07:44:17;98098.78;;;26.66;76.61
27202;BME280;14717;46.924;15.474;2023-06-22T07:46:43;98097.06;;;26.55;72.31
27202;BME280;14717;46.924;15.474;2023-06-22T07:49:08;98098.25;;;26.51;74.79
27202;BME280;14717;46.924;15.474;2023-06-22T07:51:34;98098.34;;;26.61;75.56
27202;BME280;14717;46.924;15.474;2023-06-22T07:53:59;98109.53;;;26.47;73.25
27202;BME280;14717;46.924;15.474;2023-06-22T07:56:25;98093.41;;;26.55;72.89
27202;BME280;14717;46.924;15.474;2023-06-22T07:58:50;98085.41;;;27.06;70.82
27202;BME280;14717;46.924;15.474;2023-06-22T08:01:16;98090.03;;;27.32;71.20
27202;BME280;14717;46.924;15.474;2023-06-22T08:03:42;98081.69;;;27.56;72.51
27202;BME280;14717;46.924;15.474;2023-06-22T08:06:08;98088.69;;;27.72;70.65
27202;BME280;14717;46.924;15.474;2023-06-22T08:08:35;98084.94;;;27.54;67.17
27202;BME280;14717;46.924;15.474;2023-06-22T08:11:01;98091.97;;;27.85;69.30
27202;BME280;14717;46.924;15.474;2023-06-22T08:13:26;98089.59;;;27.93;71.20
27202;BME280;14717;46.924;15.474;2023-06-22T08:15:51;98083.94;;;28.04;74.42
27202;BME280;14717;46.924;15.474;2023-06-22T08:18:17;98087.16;;;27.99;69.40
27202;BME280;14717;46.924;15.474;2023-06-22T08:20:42;98084.84;;;28.18;70.79
27202;BME280;14717;46.924;15.474;2023-06-22T08:23:07;98082.78;;;28.15;68.56
27202;BME280;14717;46.924;15.474;2023-06-22T08:25:33;98076.19;;;27.97;68.25
27202;BME280;14717;46.924;15.474;2023-06-22T08:28:00;98072.69;;;28.31;66.71
27202;BME280;14717;46.924;15.474;2023-06-22T08:30:25;98068.25;;;28.58;66.28
27202;BME280;14717;46.924;15.474;2023-06-22T08:32:51;98073.94;;;28.62;66.41
27202;BME280;14717;46.924;15.474;2023-06-22T08:35:16;98074.34;;;28.57;66.41
27202;BME280;14717;46.924;15.474;2023-06-22T08:37:42;98075.53;;;28.56;64.91
27202;BME280;14717;46.924;15.474;2023-06-22T08:40:09;98069.44;;;28.61;62.12
27202;BME280;14717;46.924;15.474;2023-06-22T08:42:40;98069.91;;;28.90;63.53
27202;BME280;14717;46.924;15.474;2023-06-22T08:45:06;98064.22;;;29.04;62.42
27202;BME280;14717;46.924;15.474;2023-06-22T08:47:31;98065.03;;;28.63;64.20
27202;BME280;14717;46.924;15.474;2023-06-22T08:49:57;98063.75;;;28.33;62.40
27202;BME280;14717;46.924;15.474;2023-06-22T08:52:23;98069.09;;;28.86;61.91
27202;BME280;14717;46.924;15.474;2023-06-22T08:54:48;98058.13;;;29.09;61.46
27202;BME280;14717;46.924;15.474;2023-06-22T08:57:14;98055.69;;;29.25;62.02
27202;BME280;14717;46.924;15.474;2023-06-22T08:59:39;98064.63;;;29.34;61.17
27202;BME280;14717;46.924;15.474;2023-06-22T09:02:05;98060.56;;;29.21;62.58
27202;BME280;14717;46.924;15.474;2023-06-22T09:04:30;98061.75;;;29.34;60.59
27202;BME280;14717;46.924;15.474;2023-06-22T09:07:00;98056.88;;;29.17;60.41
27202;BME280;14717;46.924;15.474;2023-06-22T09:09:25;98062.56;;;29.34;61.78
27202;BME280;14717;46.924;15.474;2023-06-22T09:11:50;98070.72;;;29.36;61.75
27202;BME280;14717;46.924;15.474;2023-06-22T09:14:16;98063.81;;;29.30;60.77
27202;BME280;14717;46.924;15.474;2023-06-22T09:16:41;98061.72;;;29.44;62.18
27202;BME280;14717;46.924;15.474;2023-06-22T09:19:07;98072.66;;;29.77;59.31
27202;BME280;14717;46.924;15.474;2023-06-22T09:21:32;98061.66;;;29.79;59.50
27202;BME280;14717;46.924;15.474;2023-06-22T09:23:58;98064.44;;;29.96;58.78
27202;BME280;14717;46.924;15.474;2023-06-22T09:26:23;98064.81;;;30.02;57.85
27202;BME280;14717;46.924;15.474;2023-06-22T09:28:49;98059.16;;;29.91;58.35
27202;BME280;14717;46.924;15.474;2023-06-22T09:31:14;98055.38;;;30.15;57.38
27202;BME280;14717;46.924;15.474;2023-06-22T09:33:42;98059.97;;;29.92;56.31
27202;BME280;14717;46.924;15.474;2023-06-22T09:36:08;98046.72;;;29.30;62.16
27202;BME280;14717;46.924;15.474;2023-06-22T09:38:37;98058.84;;;29.61;59.79
27202;BME280;14717;46.924;15.474;2023-06-22T09:41:03;98052.34;;;29.51;60.50
27202;BME280;14717;46.924;15.474;2023-06-22T09:43:30;98053.06;;;29.89;58.20
27202;BME280;14717;46.924;15.474;2023-06-22T09:45:56;98052.34;;;29.54;57.64
27202;BME280;14717;46.924;15.474;2023-06-22T09:48:21;98053.13;;;29.68;59.10
27202;BME280;14717;46.924;15.474;2023-06-22T09:50:47;98040.13;;;29.57;58.65
27202;BME280;14717;46.924;15.474;2023-06-22T09:53:12;98027.81;;;29.88;58.45
27202;BME280;14717;46.924;15.474;2023-06-22T09:55:38;98037.44;;;30.18;58.71
27202;BME280;14717;46.924;15.474;2023-06-22T09:58:03;98029.50;;;29.78;57.22
27202;BME280;14717;46.924;15.474;2023-06-22T10:00:28;98030.97;;;30.07;57.16
27202;BME280;14717;46.924;15.474;2023-06-22T10:02:54;98026.81;;;30.22;62.88
27202;BME280;14717;46.924;15.474;2023-06-22T10:05:21;98029.13;;;30.48;55.71
27202;BME280;14717;46.924;15.474;2023-06-22T10:07:46;98028.22;;;30.57;56.36
27202;BME280;14717;46.924;15.474;2023-06-22T10:10:12;98031.19;;;30.44;56.54
27202;BME280;14717;46.924;15.474;2023-06-22T10:12:43;98025.75;;;30.59;55.68
27202;BME280;14717;46.924;15.474;2023-06-22T10:15:09;98026.47;;;30.13;54.46
27202;BME280;14717;46.924;15.474;2023-06-22T10:17:35;98031.81;;;30.04;61.08
27202;BME280;14717;46.924;15.474;2023-06-22T10:20:00;98024.75;;;30.33;57.91
27202;BME280;14717;46.924;15.474;2023-06-22T10:22:31;98029.13;;;30.48;56.56
27202;BME280;14717;46.924;15.474;2023-06-22T10:24:56;98036.06;;;30.47;54.67
27202;BME280;14717;46.924;15.474;2023-06-22T10:27:21;98027.47;;;30.53;54.83
27202;BME280;14717;46.924;15.474;2023-06-22T10:29:47;98022.91;;;30.59;56.17
27202;BME280;14717;46.924;15.474;2023-06-22T10:32:12;98020.91;;;30.53;56.58
27202;BME280;14717;46.924;15.474;2023-06-22T10:34:37;98017.06;;;30.77;55.36
27202;BME280;14717;46.924;15.474;2023-06-22T10:37:03;98016.13;;;30.93;53.85
27202;BME280;14717;46.924;15.474;2023-06-22T10:39:28;98016.75;;;30.64;53.48
27202;BME280;14717;46.924;15.474;2023-06-22T10:41:53;98022.41;;;30.75;54.88
27202;BME280;14717;46.924;15.474;2023-06-22T10:44:19;98015.31;;;30.93;53.47
27202;BME280;14717;46.924;15.474;2023-06-22T10:46:45;98007.53;;;31.33;52.77
27202;BME280;14717;46.924;15.474;2023-06-22T10:49:11;98005.25;;;31.58;51.41
27202;BME280;14717;46.924;15.474;2023-06-22T10:51:36;98001.34;;;31.45;50.35
27202;BME280;14717;46.924;15.474;2023-06-22T10:54:01;98010.75;;;31.42;51.07
27202;BME280;14717;46.924;15.474;2023-06-22T10:56:29;98005.28;;;31.18;53.33
27202;BME280;14717;46.924;15.474;2023-06-22T10:58:54;98002.72;;;31.67;51.96
27202;BME280;14717;46.924;15.474;2023-06-22T11:01:20;97998.19;;;32.03;51.34
27202;BME280;14717;46.924;15.474;2023-06-22T11:03:45;98001.44;;;32.05;50.26
27202;BME280;14717;46.924;15.474;2023-06-22T11:06:11;98006.97;;;31.52;50.07
27202;BME280;14717;46.924;15.474;2023-06-22T11:08:36;98000.81;;;31.14;51.56
27202;BME280;14717;46.924;15.474;2023-06-22T11:11:01;97998.97;;;31.33;52.20
27202;BME280;14717;46.924;15.474;2023-06-22T11:13:27;97992.84;;;31.72;51.43
27202;BME280;14717;46.924;15.474;2023-06-22T11:15:52;97987.84;;;31.79;51.48
27202;BME280;14717;46.924;15.474;2023-06-22T11:18:17;97984.81;;;32.22;50.06
27202;BME280;14717;46.924;15.474;2023-06-22T11:20:43;97986.19;;;32.41;49.69
27202;BME280;14717;46.924;15.474;2023-06-22T11:23:09;97986.59;;;31.50;51.65
27202;BME280;14717;46.924;15.474;2023-06-22T11:25:36;97991.78;;;31.22;54.77
27202;BME280;14717;46.924;15.474;2023-06-22T11:28:03;97983.97;;;31.63;51.38
27202;BME280;14717;46.924;15.474;2023-06-22T11:30:30;97982.38;;;31.62;51.64
27202;BME280;14717;46.924;15.474;2023-06-22T11:32:57;97975.66;;;31.75;51.91
27202;BME280;14717;46.924;15.474;2023-06-22T11:35:23;97985.88;;;32.06;50.96
27202;BME280;14717;46.924;15.474;2023-06-22T11:37:48;97977.75;;;32.01;51.39
27202;BME280;14717;46.924;15.474;2023-06-22T11:40:13;97976.50;;;32.31;52.48
27202;BME280;14717;46.924;15.474;2023-06-22T11:42:39;97971.38;;;32.20;51.03
27202;BME280;14717;46.924;15.474;2023-06-22T11:45:05;97969.13;;;32.30;50.28
27202;BME280;14717;46.924;15.474;2023-06-22T11:47:30;97960.13;;;32.32;52.42
27202;BME280;14717;46.924;15.474;2023-06-22T11:49:56;97962.66;;;32.26;52.84
27202;BME280;14717;46.924;15.474;2023-06-22T11:52:21;97969.31;;;32.20;52.56
27202;BME280;14717;46.924;15.474;2023-06-22T11:54:46;97964.63;;;32.59;51.23
27202;BME280;14717;46.924;15.474;2023-06-22T11:57:12;97958.97;;;32.56;50.82
27202;BME280;14717;46.924;15.474;2023-06-22T11:59:37;97959.09;;;32.49;51.84
27202;BME280;14717;46.924;15.474;2023-06-22T12:02:03;97961.75;;;32.59;52.48
27202;BME280;14717;46.924;15.474;2023-06-22T12:04:30;97950.31;;;32.59;50.48
27202;BME280;14717;46.924;15.474;2023-06-22T12:06:56;97951.97;;;32.30;51.10
27202;BME280;14717;46.924;15.474;2023-06-22T12:09:21;97953.38;;;32.49;53.73
27202;BME280;14717;46.924;15.474;2023-06-22T12:11:46;97950.00;;;32.54;52.16
27202;BME280;14717;46.924;15.474;2023-06-22T12:14:11;97948.19;;;32.63;50.09
27202;BME280;14717;46.924;15.474;2023-06-22T12:16:37;97942.72;;;32.72;52.43
27202;BME280;14717;46.924;15.474;2023-06-22T12:19:03;97936.44;;;32.31;53.20
27202;BME280;14717;46.924;15.474;2023-06-22T12:21:28;97933.56;;;32.58;52.48
27202;BME280;14717;46.924;15.474;2023-06-22T12:23:54;97930.22;;;32.36;55.06
27202;BME280;14717;46.924;15.474;2023-06-22T12:26:19;97923.31;;;32.34;54.21
27202;BME280;14717;46.924;15.474;2023-06-22T12:28:44;97922.91;;;32.58;53.09
27202;BME280;14717;46.924;15.474;2023-06-22T12:31:10;97909.66;;;32.67;52.71
27202;BME280;14717;46.924;15.474;2023-06-22T12:33:35;97918.69;;;32.66;51.58
27202;BME280;14717;46.924;15.474;2023-06-22T12:36:00;97914.88;;;32.23;52.54
27202;BME280;14717;46.924;15.474;2023-06-22T12:38:26;97925.34;;;32.07;52.45
27202;BME280;14717;46.924;15.474;2023-06-22T12:40:51;97920.97;;;32.25;52.94
27202;BME280;14717;46.924;15.474;2023-06-22T12:43:17;97921.41;;;32.50;54.14
27202;BME280;14717;46.924;15.474;2023-06-22T12:45:43;97920.84;;;32.81;52.08